createdAt,value
2022-10-15T00:01:45.696Z,16.80
2022-10-15T00:04:15.367Z,14.55
2022-10-15T00:06:43.563Z,13.02
2022-10-15T00:09:12.037Z,13.40
2022-10-15T00:11:40.566Z,14.82
2022-10-15T00:14:08.962Z,14.63
2022-10-15T00:16:37.179Z,18.38
2022-10-15T00:19:05.693Z,15.90
2022-10-15T00:21:37.966Z,13.38
2022-10-15T00:24:07.213Z,18.13
2022-10-15T00:26:35.623Z,16.23
2022-10-15T00:29:05.778Z,16.63
2022-10-15T00:31:34.771Z,14.68
2022-10-15T00:34:04.283Z,15.52
2022-10-15T00:36:37.310Z,16.13
2022-10-15T00:39:07.857Z,15.93
2022-10-15T00:41:37.652Z,17.50
2022-10-15T00:44:39.642Z,18.23
2022-10-15T00:47:15.740Z,21.38
2022-10-15T00:49:48.582Z,14.50
2022-10-15T00:52:21.826Z,18.83
2022-10-15T00:54:56.109Z,14.45
2022-10-15T00:57:25.284Z,14.55
2022-10-15T00:59:56.151Z,18.50
2022-10-15T01:02:25.291Z,17.50
2022-10-15T01:04:55.244Z,17.23
2022-10-15T01:07:25.034Z,14.77
2022-10-15T01:09:54.118Z,18.08
2022-10-15T01:12:32.274Z,14.80
2022-10-15T01:15:06.910Z,17.65
2022-10-15T01:17:43.578Z,14.65
2022-10-15T01:20:30.356Z,15.98
2022-10-15T01:23:23.669Z,16.45
2022-10-15T01:26:03.068Z,16.67
2022-10-15T01:28:44.618Z,14.53
2022-10-15T01:31:22.868Z,15.77
2022-10-15T01:34:01.547Z,13.52
2022-10-15T01:36:36.026Z,17.50
2022-10-15T01:39:12.443Z,17.23
2022-10-15T01:41:45.460Z,13.98
2022-10-15T01:44:19.886Z,17.05
2022-10-15T01:46:52.120Z,14.65
2022-10-15T01:49:24.861Z,18.33
2022-10-15T01:51:55.075Z,15.65
2022-10-15T01:54:26.158Z,16.88
2022-10-15T01:56:56.085Z,14.85
2022-10-15T01:59:27.388Z,17.53
2022-10-15T02:01:58.536Z,14.93
2022-10-15T02:04:28.879Z,15.13
2022-10-15T02:07:03.657Z,16.48
2022-10-15T02:09:41.935Z,19.52
2022-10-15T02:12:22.804Z,15.38
2022-10-15T02:14:57.997Z,14.73
2022-10-15T02:17:34.686Z,16.77
2022-10-15T02:20:08.274Z,14.35
2022-10-15T02:22:41.594Z,17.42
2022-10-15T02:25:16.206Z,15.27
2022-10-15T02:27:46.656Z,14.68
2022-10-15T02:30:15.207Z,15.90
2022-10-15T02:32:49.494Z,17.05
2022-10-15T02:35:18.603Z,16.83
2022-10-15T02:37:50.939Z,15.25
2022-10-15T02:40:20.124Z,15.23
2022-10-15T02:42:48.704Z,15.25
2022-10-15T02:45:17.118Z,15.95
2022-10-15T02:47:47.318Z,19.67
2022-10-15T02:50:15.968Z,16.05
2022-10-15T02:52:44.246Z,14.65
2022-10-15T02:55:13.065Z,13.90
2022-10-15T02:57:41.881Z,14.53
2022-10-15T03:00:11.754Z,15.18
2022-10-15T03:02:40.256Z,14.40
2022-10-15T03:05:10.590Z,12.85
2022-10-15T03:07:38.870Z,19.52
2022-10-15T03:10:08.271Z,13.70
2022-10-15T03:12:37.152Z,16.15
2022-10-15T03:15:05.982Z,16.00
2022-10-15T03:17:34.203Z,16.45
2022-10-15T03:20:02.670Z,15.15
2022-10-15T03:22:33.462Z,16.80
2022-10-15T03:25:01.994Z,18.27
2022-10-15T03:27:30.205Z,16.65
2022-10-15T03:29:58.504Z,15.25
2022-10-15T03:32:26.882Z,15.18
2022-10-15T03:34:55.662Z,14.35
2022-10-15T03:37:24.536Z,14.90
2022-10-15T03:39:54.416Z,18.83
2022-10-15T03:42:23.147Z,17.00
2022-10-15T03:44:51.598Z,14.30
2022-10-15T03:47:19.758Z,14.07
2022-10-15T03:49:48.016Z,16.55
2022-10-15T03:52:16.910Z,17.60
2022-10-15T03:54:45.647Z,14.57
2022-10-15T03:57:15.875Z,13.68
2022-10-15T04:02:12.907Z,17.95
2022-10-15T04:04:41.405Z,17.08
2022-10-15T04:07:09.644Z,16.38
2022-10-15T04:09:37.958Z,14.57
2022-10-15T04:12:06.767Z,16.55
2022-10-15T04:14:36.493Z,17.05
2022-10-15T04:17:04.946Z,18.50
2022-10-15T04:19:33.199Z,16.17
2022-10-15T04:22:01.481Z,16.00
2022-10-15T04:24:29.696Z,14.43
2022-10-15T04:26:58.011Z,16.25
2022-10-15T04:29:26.296Z,18.48
2022-10-15T04:31:55.954Z,15.55
2022-10-15T04:34:24.273Z,18.08
2022-10-15T04:36:53.074Z,17.67
2022-10-15T04:39:22.067Z,14.15
2022-10-15T04:41:51.000Z,13.38
2022-10-15T04:44:19.450Z,15.48
2022-10-15T04:46:48.261Z,14.20
2022-10-15T04:49:18.729Z,15.65
2022-10-15T04:51:47.311Z,15.80
2022-10-15T04:54:15.777Z,15.80
2022-10-15T04:56:44.808Z,14.13
2022-10-15T04:59:13.819Z,14.63
2022-10-15T05:01:42.108Z,16.40
2022-10-15T05:04:12.485Z,17.30
2022-10-15T05:06:42.167Z,16.15
2022-10-15T05:09:10.784Z,16.75
2022-10-15T05:11:39.577Z,15.10
2022-10-15T05:14:08.278Z,13.85
2022-10-15T05:16:36.913Z,14.38
2022-10-15T05:19:08.123Z,16.33
2022-10-15T05:21:37.381Z,17.08
2022-10-15T05:24:08.170Z,13.88
2022-10-15T05:26:36.512Z,16.67
2022-10-15T05:29:05.344Z,14.10
2022-10-15T05:31:35.109Z,12.88
2022-10-15T05:34:08.766Z,15.95
2022-10-15T05:36:38.286Z,16.02
2022-10-15T05:39:10.717Z,12.35
2022-10-15T05:41:39.160Z,11.35
2022-10-15T05:44:08.369Z,14.93
2022-10-15T05:46:37.227Z,14.27
2022-10-15T05:49:06.114Z,13.70
2022-10-15T05:51:34.330Z,16.40
2022-10-15T05:54:02.572Z,14.10
2022-10-15T05:56:32.215Z,16.65
2022-10-15T05:59:01.049Z,15.55
2022-10-15T06:01:29.639Z,19.52
2022-10-15T06:03:57.995Z,12.43
2022-10-15T06:06:28.266Z,16.42
2022-10-15T06:08:56.838Z,11.20
2022-10-15T06:11:25.330Z,13.65
2022-10-15T06:13:55.283Z,14.38
2022-10-15T06:16:24.206Z,12.80
2022-10-15T06:18:54.537Z,13.07
2022-10-15T06:21:23.893Z,15.25
2022-10-15T06:23:52.311Z,13.95
2022-10-15T06:26:21.210Z,12.98
2022-10-15T06:28:50.164Z,11.73
2022-10-15T06:31:20.098Z,12.45
2022-10-15T06:33:48.476Z,10.93
2022-10-15T06:36:17.245Z,10.82
2022-10-15T06:38:46.369Z,10.75
2022-10-15T06:41:15.547Z,13.48
2022-10-15T06:43:45.393Z,13.13
2022-10-15T06:46:14.696Z,12.68
2022-10-15T06:48:45.507Z,14.57
2022-10-15T06:51:14.037Z,10.73
2022-10-15T06:53:43.967Z,12.95
2022-10-15T06:56:12.596Z,13.75
2022-10-15T06:58:44.304Z,11.65
2022-10-15T07:01:12.926Z,12.65
2022-10-15T07:03:41.947Z,15.32
2022-10-15T07:06:12.315Z,17.67
2022-10-15T07:08:40.863Z,16.27
2022-10-15T07:11:11.311Z,14.60
2022-10-15T07:13:40.451Z,11.75
2022-10-15T07:16:10.843Z,13.23
2022-10-15T07:18:40.486Z,14.30
2022-10-15T07:23:40.675Z,11.00
2022-10-15T07:26:09.010Z,12.85
2022-10-15T07:28:37.409Z,12.90
2022-10-15T07:31:07.824Z,11.25
2022-10-15T07:33:36.641Z,11.73
2022-10-15T07:36:06.803Z,12.48
2022-10-15T07:38:35.110Z,14.00
2022-10-15T07:41:06.765Z,10.82
2022-10-15T07:43:35.655Z,12.90
2022-10-15T07:46:04.697Z,14.32
2022-10-15T07:48:33.680Z,12.35
2022-10-15T07:51:04.600Z,12.38
2022-10-15T07:53:33.589Z,9.88
2022-10-15T07:56:02.900Z,9.23
2022-10-15T07:58:34.821Z,10.57
2022-10-15T08:01:04.721Z,11.68
2022-10-15T08:03:35.040Z,12.65
2022-10-15T08:06:05.781Z,10.02
2022-10-15T08:08:36.392Z,10.40
2022-10-15T08:11:07.731Z,11.20
2022-10-15T08:13:39.228Z,9.82
2022-10-15T08:16:08.267Z,11.05
2022-10-15T08:18:41.219Z,9.65
2022-10-15T08:21:10.742Z,11.43
2022-10-15T08:23:40.254Z,15.32
2022-10-15T08:26:09.454Z,11.25
2022-10-15T08:28:41.819Z,10.02
2022-10-15T08:31:10.599Z,9.40
2022-10-15T08:33:40.382Z,11.88
2022-10-15T08:36:11.298Z,8.50
2022-10-15T08:38:43.221Z,7.97
2022-10-15T08:41:25.039Z,8.10
2022-10-15T08:43:56.941Z,7.20
2022-10-15T08:46:31.472Z,11.52
2022-10-15T08:49:04.996Z,7.95
2022-10-15T08:51:42.586Z,7.57
2022-10-15T08:54:18.699Z,7.90
2022-10-15T08:56:55.486Z,10.40
2022-10-15T08:59:35.094Z,10.93
2022-10-15T09:02:14.457Z,9.70
2022-10-15T09:04:54.899Z,9.50
2022-10-15T09:07:35.977Z,10.32
2022-10-15T09:10:16.928Z,10.13
2022-10-15T09:12:57.640Z,10.60
2022-10-15T09:15:37.029Z,10.65
2022-10-15T09:18:19.501Z,11.43
2022-10-15T09:20:54.479Z,9.27
2022-10-15T09:23:25.203Z,10.27
2022-10-15T09:26:00.305Z,9.50
2022-10-15T09:28:43.308Z,11.40
2022-10-15T09:31:24.177Z,10.23
2022-10-15T09:34:00.748Z,9.20
2022-10-15T09:36:38.321Z,7.70
2022-10-15T09:39:33.840Z,10.82
2022-10-15T09:42:18.951Z,9.73
2022-10-15T09:44:49.073Z,10.95
2022-10-15T09:47:25.871Z,13.05
2022-10-15T09:50:03.374Z,9.52
2022-10-15T09:53:00.868Z,10.98
2022-10-15T09:55:43.719Z,9.40
2022-10-15T09:58:18.323Z,15.25
2022-10-15T10:01:01.656Z,11.10
2022-10-15T10:03:34.023Z,8.15
2022-10-15T10:06:11.726Z,8.95
2022-10-15T10:08:43.990Z,8.02
2022-10-15T10:11:20.423Z,9.93
2022-10-15T10:13:55.050Z,9.82
2022-10-15T10:16:25.190Z,8.68
2022-10-15T10:19:07.261Z,9.05
2022-10-15T10:21:39.936Z,11.35
2022-10-15T10:24:28.929Z,6.75
2022-10-15T10:26:58.571Z,8.15
2022-10-15T10:29:33.903Z,12.60
2022-10-15T10:32:12.626Z,7.50
2022-10-15T10:34:52.906Z,8.73
2022-10-15T10:37:23.198Z,9.68
2022-10-15T10:39:58.627Z,8.15
2022-10-15T10:42:37.942Z,9.13
2022-10-15T10:45:23.111Z,7.28
2022-10-15T10:47:52.514Z,14.60
2022-10-15T10:50:40.951Z,14.85
2022-10-15T10:53:25.561Z,8.80
2022-10-15T10:56:01.595Z,8.00
2022-10-15T10:58:35.347Z,8.98
2022-10-15T11:01:04.895Z,7.95
2022-10-15T11:03:41.257Z,8.07
2022-10-15T11:06:23.188Z,8.30
2022-10-15T11:09:05.946Z,7.60
2022-10-15T11:11:43.896Z,8.73
2022-10-15T11:14:23.838Z,7.85
2022-10-15T11:17:04.785Z,8.75
2022-10-15T11:22:53.555Z,13.25
2022-10-15T11:25:31.718Z,7.75
2022-10-15T11:28:22.319Z,6.25
2022-10-15T11:30:56.763Z,6.15
2022-10-15T11:33:41.767Z,6.45
2022-10-15T11:36:28.372Z,5.78
2022-10-15T11:39:09.289Z,6.03
2022-10-15T11:41:53.665Z,7.43
2022-10-15T11:44:36.546Z,4.88
2022-10-15T11:47:25.061Z,6.05
2022-10-15T11:50:07.453Z,6.00
2022-10-15T11:52:48.872Z,6.70
2022-10-15T11:55:28.067Z,4.28
2022-10-15T11:58:03.066Z,5.07
2022-10-15T12:00:38.463Z,6.35
2022-10-15T12:03:13.707Z,6.55
2022-10-15T12:05:49.365Z,3.65
2022-10-15T12:08:32.100Z,4.65
2022-10-15T12:11:25.181Z,4.50
2022-10-15T12:14:05.016Z,6.50
2022-10-15T12:16:42.007Z,3.70
2022-10-15T12:19:17.987Z,3.88
2022-10-15T12:22:14.522Z,4.78
2022-10-15T12:24:55.359Z,8.23
2022-10-15T12:27:32.909Z,3.78
2022-10-15T12:30:26.661Z,4.60
2022-10-15T12:33:02.756Z,4.45
2022-10-15T12:35:44.334Z,5.15
2022-10-15T12:38:22.232Z,4.38
2022-10-15T12:41:00.642Z,7.72
2022-10-15T12:43:36.411Z,4.85
2022-10-15T12:46:13.478Z,10.60
2022-10-15T12:48:44.268Z,3.42
2022-10-15T12:51:33.158Z,9.05
2022-10-15T12:54:08.935Z,5.10
2022-10-15T12:56:44.592Z,4.35
2022-10-15T13:00:01.594Z,3.28
2022-10-15T13:02:43.393Z,5.03
2022-10-15T13:05:27.939Z,4.15
2022-10-15T13:08:01.712Z,8.50
2022-10-15T13:10:37.438Z,4.65
2022-10-15T13:13:09.021Z,5.78
2022-10-15T13:15:39.484Z,5.72
2022-10-15T13:18:20.580Z,2.80
2022-10-15T13:20:56.419Z,4.05
2022-10-15T13:23:30.466Z,2.90
2022-10-15T13:26:21.977Z,3.72
2022-10-15T13:28:53.062Z,4.35
2022-10-15T13:31:30.103Z,5.63
2022-10-15T13:34:08.504Z,7.65
2022-10-15T13:36:37.221Z,3.33
2022-10-15T13:39:09.476Z,7.38
2022-10-15T13:41:40.603Z,4.18
2022-10-15T13:44:20.885Z,3.60
2022-10-15T13:46:51.271Z,2.20
2022-10-15T13:49:21.527Z,3.50
2022-10-15T13:51:55.165Z,4.25
2022-10-15T13:54:26.960Z,4.75
2022-10-15T13:56:59.230Z,3.00
2022-10-15T13:59:30.921Z,3.70
2022-10-15T14:02:04.523Z,4.10
2022-10-15T14:04:34.775Z,4.90
2022-10-15T14:07:23.483Z,5.75
2022-10-15T14:09:53.559Z,2.35
2022-10-15T14:12:22.237Z,2.53
2022-10-15T14:14:52.057Z,2.90
2022-10-15T14:17:28.298Z,3.97
2022-10-15T14:20:25.836Z,5.25
2022-10-15T14:22:54.652Z,3.00
2022-10-15T14:25:48.785Z,2.63
2022-10-15T14:28:23.335Z,4.45
2022-10-15T14:30:59.985Z,2.95
2022-10-15T14:33:44.667Z,3.25
2022-10-15T14:36:23.472Z,2.28
2022-10-15T14:38:54.627Z,4.03
2022-10-15T14:41:41.701Z,4.40
2022-10-15T14:44:20.541Z,3.22
2022-10-15T14:46:54.734Z,8.32
2022-10-15T14:49:29.181Z,5.20
2022-10-15T14:52:08.801Z,2.55
2022-10-15T14:54:43.647Z,2.58
2022-10-15T14:57:20.355Z,2.22
2022-10-15T14:59:49.333Z,7.03
2022-10-15T15:02:18.731Z,3.60
2022-10-15T15:05:08.199Z,4.30
2022-10-15T15:07:41.306Z,5.15
2022-10-15T15:10:14.992Z,2.45
2022-10-15T15:12:52.366Z,3.25
2022-10-15T15:15:23.589Z,3.03
2022-10-15T15:17:56.746Z,3.42
2022-10-15T15:20:29.337Z,4.50
2022-10-15T15:22:58.610Z,3.63
2022-10-15T15:25:35.726Z,3.28
2022-10-15T15:28:21.596Z,3.38
2022-10-15T15:30:59.551Z,4.10
2022-10-15T15:33:30.050Z,4.75
2022-10-15T15:36:05.889Z,2.67
2022-10-15T15:38:39.605Z,4.40
2022-10-15T15:44:10.941Z,4.85
2022-10-15T15:46:39.813Z,2.28
2022-10-15T15:49:08.976Z,5.60
2022-10-15T15:51:39.472Z,2.30
2022-10-15T15:54:10.945Z,3.22
2022-10-15T15:56:41.280Z,4.65
2022-10-15T15:59:10.152Z,2.33
2022-10-15T16:01:39.014Z,3.10
2022-10-15T16:04:07.608Z,2.67
2022-10-15T16:06:36.295Z,2.83
2022-10-15T16:09:09.775Z,3.03
2022-10-15T16:11:44.720Z,5.32
2022-10-15T16:14:13.330Z,2.38
2022-10-15T16:16:42.090Z,3.35
2022-10-15T16:19:10.676Z,2.88
2022-10-15T16:21:41.185Z,3.17
2022-10-15T16:24:11.362Z,4.00
2022-10-15T16:26:39.749Z,5.45
2022-10-15T16:29:08.424Z,4.07
2022-10-15T16:31:37.853Z,3.20
2022-10-15T16:34:10.085Z,5.05
2022-10-15T16:36:43.772Z,3.58
2022-10-15T16:39:14.332Z,3.13
2022-10-15T16:41:44.924Z,4.20
2022-10-15T16:44:13.539Z,4.80
2022-10-15T16:46:42.281Z,3.53
2022-10-15T16:49:11.407Z,5.30
2022-10-15T16:51:43.528Z,4.93
2022-10-15T16:54:15.630Z,4.90
2022-10-15T16:56:46.085Z,3.55
2022-10-15T16:59:17.320Z,7.60
2022-10-15T17:01:46.089Z,4.10
2022-10-15T17:04:14.719Z,5.07
2022-10-15T17:06:43.915Z,5.00
2022-10-15T17:09:14.682Z,6.68
2022-10-15T17:11:47.162Z,4.78
2022-10-15T17:14:17.792Z,8.52
2022-10-15T17:16:47.769Z,6.22
2022-10-15T17:19:18.246Z,6.43
2022-10-15T17:21:47.982Z,5.32
2022-10-15T17:24:19.750Z,6.13
2022-10-15T17:26:50.056Z,6.65
2022-10-15T17:29:23.162Z,11.38
2022-10-15T17:31:53.150Z,8.65
2022-10-15T17:34:22.383Z,7.40
2022-10-15T17:36:53.024Z,7.00
2022-10-15T17:39:24.669Z,9.43
2022-10-15T17:41:53.976Z,10.95
2022-10-15T17:44:22.387Z,7.75
2022-10-15T17:46:52.995Z,8.95
2022-10-15T17:49:21.684Z,9.95
2022-10-15T17:51:51.211Z,25.92
2022-10-15T17:54:20.257Z,8.55
2022-10-15T17:56:50.624Z,7.40
2022-10-15T17:59:19.396Z,10.00
2022-10-15T18:02:03.486Z,9.70
2022-10-15T18:04:32.236Z,9.70
2022-10-15T18:07:00.668Z,9.95
2022-10-15T18:09:29.437Z,10.80
2022-10-15T18:12:01.954Z,8.55
2022-10-15T18:14:31.022Z,9.25
2022-10-15T18:17:00.653Z,9.05
2022-10-15T18:19:29.263Z,12.52
2022-10-15T18:21:57.984Z,9.30
2022-10-15T18:24:26.570Z,8.77
2022-10-15T18:26:55.378Z,9.18
2022-10-15T18:29:26.527Z,8.95
2022-10-15T18:31:58.186Z,7.93
2022-10-15T18:34:27.732Z,7.75
2022-10-15T18:36:56.831Z,7.45
2022-10-15T18:39:25.663Z,8.05
2022-10-15T18:41:54.530Z,7.07
2022-10-15T18:44:25.124Z,9.32
2022-10-15T18:46:54.250Z,6.72
2022-10-15T18:49:22.835Z,8.60
2022-10-15T18:51:53.218Z,9.13
2022-10-15T18:54:22.283Z,6.70
2022-10-15T18:56:52.541Z,6.20
2022-10-15T18:59:21.754Z,8.52
2022-10-15T19:01:52.206Z,7.93
2022-10-15T19:04:23.498Z,6.15
2022-10-15T19:06:54.639Z,6.85
2022-10-15T19:09:24.794Z,7.22
2022-10-15T19:11:55.067Z,6.68
2022-10-15T19:14:24.412Z,6.93
2022-10-15T19:16:55.791Z,9.05
2022-10-15T19:19:26.518Z,6.80
2022-10-15T19:21:56.357Z,6.47
2022-10-15T19:24:25.556Z,6.57
2022-10-15T19:26:54.094Z,5.80
2022-10-15T19:29:22.315Z,5.18
2022-10-15T19:31:51.188Z,7.65
2022-10-15T19:34:23.323Z,6.78
2022-10-15T19:36:52.389Z,5.80
2022-10-15T19:39:23.515Z,6.07
2022-10-15T19:41:54.002Z,6.00
2022-10-15T19:44:25.805Z,5.07
2022-10-15T19:46:55.214Z,5.55
2022-10-15T19:49:25.691Z,5.35
2022-10-15T19:51:55.702Z,8.20
2022-10-15T19:56:54.415Z,5.93
2022-10-15T19:59:23.720Z,5.50
2022-10-15T20:01:52.162Z,11.85
2022-10-15T20:04:20.887Z,5.43
2022-10-15T20:06:52.927Z,5.13
2022-10-15T20:09:21.639Z,4.55
2022-10-15T20:11:50.013Z,5.93
2022-10-15T20:14:18.407Z,3.70
2022-10-15T20:16:47.171Z,4.57
2022-10-15T20:19:15.660Z,4.40
2022-10-15T20:21:44.053Z,5.22
2022-10-15T20:24:14.850Z,6.63
2022-10-15T20:26:43.275Z,6.22
2022-10-15T20:29:11.595Z,7.65
2022-10-15T20:31:40.275Z,6.00
2022-10-15T20:34:08.517Z,5.53
2022-10-15T20:36:41.294Z,4.32
2022-10-15T20:39:10.046Z,4.75
2022-10-15T20:41:40.445Z,4.32
2022-10-15T20:44:12.125Z,4.22
2022-10-15T20:46:45.048Z,6.07
2022-10-15T20:49:17.055Z,4.70
2022-10-15T20:51:46.137Z,7.15
2022-10-15T20:54:16.304Z,4.25
2022-10-15T20:56:47.308Z,5.28
2022-10-15T20:59:15.474Z,4.22
2022-10-15T21:01:44.071Z,5.95
2022-10-15T21:04:12.423Z,5.07
2022-10-15T21:06:40.726Z,6.68
2022-10-15T21:09:09.092Z,5.90
2022-10-15T21:11:42.039Z,10.25
2022-10-15T21:14:12.212Z,5.63
2022-10-15T21:16:40.575Z,4.47
2022-10-15T21:19:08.982Z,3.85
2022-10-15T21:21:37.745Z,4.80
2022-10-15T21:24:07.069Z,4.65
2022-10-15T21:26:35.784Z,4.60
2022-10-15T21:29:04.363Z,6.20
2022-10-15T21:31:34.920Z,5.57
2022-10-15T21:34:03.252Z,4.78
2022-10-15T21:36:32.603Z,5.15
2022-10-15T21:39:02.945Z,4.78
2022-10-15T21:41:34.641Z,5.22
2022-10-15T21:44:04.641Z,5.53
2022-10-15T21:46:35.510Z,4.80
2022-10-15T21:49:04.471Z,3.92
2022-10-15T21:51:34.673Z,3.83
2022-10-15T21:54:04.446Z,4.32
2022-10-15T21:56:32.974Z,3.85
2022-10-15T21:59:01.387Z,3.90
2022-10-15T22:01:32.173Z,5.20
2022-10-15T22:04:03.839Z,5.20
2022-10-15T22:06:33.280Z,5.63
2022-10-15T22:09:02.123Z,3.95
2022-10-15T22:11:32.305Z,4.18
2022-10-15T22:14:04.217Z,4.93
2022-10-15T22:16:38.885Z,4.20
2022-10-15T22:19:10.051Z,4.30
2022-10-15T22:21:40.236Z,3.92
2022-10-15T22:24:14.239Z,3.53
2022-10-15T22:26:45.532Z,9.45
2022-10-15T22:29:18.988Z,4.38
2022-10-15T22:31:48.246Z,5.93
2022-10-15T22:34:19.758Z,4.75
2022-10-15T22:36:49.171Z,5.28
2022-10-15T22:39:19.320Z,4.68
2022-10-15T22:41:49.358Z,4.50
2022-10-15T22:44:19.615Z,7.03
2022-10-15T22:46:49.692Z,4.18
2022-10-15T22:49:22.291Z,5.72
2022-10-15T22:51:51.688Z,4.18
2022-10-15T22:54:22.076Z,4.65
2022-10-15T22:56:51.996Z,4.00
2022-10-15T22:59:20.787Z,4.65
2022-10-15T23:01:49.151Z,4.68
2022-10-15T23:04:19.337Z,4.78
2022-10-15T23:06:48.763Z,5.15
2022-10-15T23:09:18.123Z,3.30
2022-10-15T23:11:46.666Z,7.10
2022-10-15T23:14:16.893Z,3.88
2022-10-15T23:16:47.244Z,4.20
2022-10-15T23:19:18.193Z,3.58
2022-10-15T23:21:50.318Z,5.68
2022-10-15T23:24:20.230Z,5.47
2022-10-15T23:26:48.963Z,4.57
2022-10-15T23:29:19.788Z,5.63
2022-10-15T23:31:48.958Z,4.20
2022-10-15T23:34:19.245Z,5.28
2022-10-15T23:36:49.648Z,3.30
2022-10-15T23:39:20.293Z,4.47
2022-10-15T23:41:49.372Z,3.20
2022-10-15T23:44:17.949Z,4.13
2022-10-15T23:46:46.462Z,3.75
2022-10-15T23:49:14.829Z,3.30
2022-10-15T23:51:43.774Z,3.55
2022-10-15T23:54:15.115Z,4.38
2022-10-15T23:56:43.769Z,4.55
2022-10-15T23:59:13.067Z,6.55
